createdAt,value
2022-10-23T00:01:48.508Z,42.60
2022-10-23T00:04:19.303Z,33.65
2022-10-23T00:06:49.123Z,32.25
2022-10-23T00:09:19.873Z,29.85
2022-10-23T00:11:50.289Z,38.50
2022-10-23T00:14:22.631Z,35.10
2022-10-23T00:16:51.482Z,28.08
2022-10-23T00:19:20.321Z,24.60
2022-10-23T00:21:49.179Z,25.42
2022-10-23T00:24:17.969Z,25.27
2022-10-23T00:26:46.791Z,31.45
2022-10-23T00:29:15.604Z,35.40
2022-10-23T00:31:45.820Z,35.58
2022-10-23T00:34:14.653Z,43.15
2022-10-23T00:36:43.490Z,48.35
2022-10-23T00:39:12.465Z,35.90
2022-10-23T00:41:41.324Z,32.17
2022-10-23T00:44:12.641Z,38.17
2022-10-23T00:46:41.551Z,39.83
2022-10-23T00:51:44.303Z,33.75
2022-10-23T00:54:30.429Z,30.08
2022-10-23T00:57:03.329Z,26.48
2022-10-23T00:59:32.984Z,31.80
2022-10-23T01:02:02.148Z,29.17
2022-10-23T01:04:33.446Z,39.95
2022-10-23T01:07:09.390Z,29.80
2022-10-23T01:09:44.264Z,29.40
2022-10-23T01:12:20.745Z,25.38
2022-10-23T01:15:00.752Z,46.10
2022-10-23T01:17:40.802Z,32.80
2022-10-23T01:20:27.097Z,31.80
2022-10-23T01:23:23.356Z,32.92
2022-10-23T01:26:25.575Z,22.90
2022-10-23T01:29:03.247Z,29.00
2022-10-23T01:31:37.047Z,32.47
2022-10-23T01:34:13.137Z,34.63
2022-10-23T01:36:48.210Z,27.13
2022-10-23T01:39:23.767Z,28.45
2022-10-23T01:41:56.345Z,28.00
2022-10-23T01:44:35.367Z,29.40
2022-10-23T01:47:07.075Z,37.33
2022-10-23T01:49:44.051Z,45.40
2022-10-23T01:52:15.326Z,25.25
2022-10-23T01:54:49.202Z,37.03
2022-10-23T01:57:21.811Z,31.67
2022-10-23T01:59:57.120Z,45.20
2022-10-23T02:02:28.044Z,29.15
2022-10-23T02:05:03.257Z,28.48
2022-10-23T02:07:32.268Z,27.45
2022-10-23T02:10:01.984Z,22.05
2022-10-23T02:12:41.634Z,21.23
2022-10-23T02:15:17.160Z,21.80
2022-10-23T02:17:52.928Z,24.58
2022-10-23T02:20:29.214Z,25.33
2022-10-23T02:23:04.091Z,20.92
2022-10-23T02:25:37.616Z,20.27
2022-10-23T02:28:11.049Z,24.25
2022-10-23T02:30:51.246Z,28.15
2022-10-23T02:33:20.918Z,22.63
2022-10-23T02:35:50.055Z,27.50
2022-10-23T02:38:33.049Z,26.00
2022-10-23T02:41:13.903Z,23.98
2022-10-23T02:43:49.314Z,29.75
2022-10-23T02:46:26.124Z,23.70
2022-10-23T02:49:05.175Z,25.42
2022-10-23T02:51:45.568Z,19.92
2022-10-23T02:54:27.093Z,18.20
2022-10-23T02:57:03.241Z,16.42
2022-10-23T02:59:38.385Z,20.63
2022-10-23T03:02:18.209Z,18.15
2022-10-23T03:04:48.033Z,13.50
2022-10-23T03:07:20.062Z,18.65
2022-10-23T03:09:49.698Z,19.02
2022-10-23T03:12:18.714Z,15.70
2022-10-23T03:14:47.557Z,13.65
2022-10-23T03:17:17.905Z,25.67
2022-10-23T03:19:48.658Z,19.27
2022-10-23T03:22:17.578Z,12.95
2022-10-23T03:24:46.677Z,23.48
2022-10-23T03:27:16.458Z,26.48
2022-10-23T03:29:45.373Z,23.13
2022-10-23T03:32:17.860Z,21.55
2022-10-23T03:34:47.071Z,20.50
2022-10-23T03:37:15.912Z,17.83
2022-10-23T03:39:44.922Z,19.40
2022-10-23T03:42:13.801Z,18.95
2022-10-23T03:44:42.667Z,13.18
2022-10-23T03:47:12.115Z,14.48
2022-10-23T03:49:42.455Z,22.83
2022-10-23T03:52:11.305Z,19.63
2022-10-23T03:54:40.132Z,28.45
2022-10-23T03:57:09.161Z,27.45
2022-10-23T03:59:38.265Z,35.88
2022-10-23T04:02:08.597Z,30.30
2022-10-23T04:04:37.533Z,28.10
2022-10-23T04:07:07.857Z,19.85
2022-10-23T04:09:36.792Z,41.67
2022-10-23T04:12:06.846Z,19.73
2022-10-23T04:14:35.693Z,17.63
2022-10-23T04:17:05.467Z,22.33
2022-10-23T04:19:34.293Z,19.17
2022-10-23T04:22:03.153Z,15.73
2022-10-23T04:24:33.427Z,26.55
2022-10-23T04:27:03.739Z,23.40
2022-10-23T04:29:33.182Z,17.05
2022-10-23T04:32:02.212Z,19.42
2022-10-23T04:34:31.092Z,13.68
2022-10-23T04:37:00.004Z,37.30
2022-10-23T04:39:29.505Z,57.75
2022-10-23T04:41:59.758Z,49.17
2022-10-23T04:44:28.595Z,42.63
2022-10-23T04:46:57.393Z,33.67
2022-10-23T04:49:26.645Z,38.17
2022-10-23T04:52:13.218Z,21.60
2022-10-23T04:55:09.328Z,23.52
2022-10-23T04:57:55.901Z,22.98
2022-10-23T05:00:27.070Z,17.25
2022-10-23T05:02:58.613Z,22.08
2022-10-23T05:05:33.537Z,26.10
2022-10-23T05:08:08.932Z,32.33
2022-10-23T05:11:06.899Z,28.48
2022-10-23T05:13:42.527Z,28.60
2022-10-23T05:16:12.409Z,32.70
2022-10-23T05:18:48.284Z,35.08
2022-10-23T05:21:23.271Z,36.05
2022-10-23T05:23:52.227Z,41.90
2022-10-23T05:26:22.437Z,48.60
2022-10-23T05:28:55.686Z,48.65
2022-10-23T05:31:25.772Z,40.08
2022-10-23T05:33:58.667Z,35.83
2022-10-23T05:36:28.422Z,29.27
2022-10-23T05:38:59.993Z,37.53
2022-10-23T05:41:29.667Z,51.58
2022-10-23T05:44:02.169Z,36.90
2022-10-23T05:47:09.375Z,28.50
2022-10-23T05:49:41.100Z,32.45
2022-10-23T05:52:32.938Z,49.22
2022-10-23T05:55:20.137Z,30.65
2022-10-23T05:58:00.214Z,26.42
2022-10-23T06:00:50.942Z,30.38
2022-10-23T06:03:40.898Z,27.42
2022-10-23T06:06:12.871Z,24.55
2022-10-23T06:08:46.610Z,23.40
2022-10-23T06:11:16.834Z,24.42
2022-10-23T06:13:53.934Z,19.85
2022-10-23T06:16:26.948Z,21.77
2022-10-23T06:18:57.489Z,22.75
2022-10-23T06:21:26.476Z,19.08
2022-10-23T06:23:56.570Z,23.00
2022-10-23T06:26:28.289Z,20.55
2022-10-23T06:29:06.339Z,23.60
2022-10-23T06:31:36.727Z,29.50
2022-10-23T06:34:07.126Z,24.33
2022-10-23T06:36:38.014Z,21.33
2022-10-23T06:39:15.841Z,24.15
2022-10-23T06:41:58.605Z,19.33
2022-10-23T06:44:45.773Z,14.45
2022-10-23T06:47:20.579Z,12.60
2022-10-23T06:50:21.333Z,12.90
2022-10-23T06:52:50.675Z,27.38
2022-10-23T06:55:20.361Z,11.20
2022-10-23T06:57:49.782Z,8.13
2022-10-23T07:00:21.548Z,22.92
2022-10-23T07:02:54.755Z,8.07
2022-10-23T07:05:24.734Z,14.68
2022-10-23T07:07:54.162Z,7.47
2022-10-23T07:10:27.837Z,4.82
2022-10-23T07:13:01.186Z,7.03
2022-10-23T07:15:32.811Z,8.23
2022-10-23T07:18:03.833Z,11.40
2022-10-23T07:20:48.215Z,22.63
2022-10-23T07:23:17.535Z,8.35
2022-10-23T07:25:47.082Z,10.93
2022-10-23T07:30:57.823Z,9.65
2022-10-23T07:33:30.975Z,10.13
2022-10-23T07:36:11.863Z,12.90
2022-10-23T07:38:41.364Z,7.30
2022-10-23T07:41:12.439Z,8.75
2022-10-23T07:43:41.545Z,18.05
2022-10-23T07:46:10.570Z,8.32
2022-10-23T07:48:42.851Z,7.75
2022-10-23T07:51:15.843Z,17.33
2022-10-23T07:53:51.274Z,4.82
2022-10-23T07:56:52.097Z,4.32
2022-10-23T07:59:43.483Z,6.18
2022-10-23T08:02:16.656Z,6.03
2022-10-23T08:04:50.129Z,4.45
2022-10-23T08:07:26.955Z,4.90
2022-10-23T08:09:58.575Z,6.88
2022-10-23T08:12:27.994Z,8.85
2022-10-23T08:14:57.551Z,5.25
2022-10-23T08:17:31.613Z,9.43
2022-10-23T08:20:10.235Z,4.53
2022-10-23T08:22:44.073Z,1.88
2022-10-23T08:25:15.550Z,2.85
2022-10-23T08:27:44.811Z,2.45
2022-10-23T08:30:16.111Z,2.75
2022-10-23T08:32:45.786Z,5.20
2022-10-23T08:35:17.385Z,2.35
2022-10-23T08:37:46.519Z,8.40
2022-10-23T08:40:17.587Z,4.47
2022-10-23T08:43:12.726Z,6.82
2022-10-23T08:45:56.464Z,2.63
2022-10-23T08:48:51.500Z,3.22
2022-10-23T08:51:48.643Z,8.52
2022-10-23T08:54:22.849Z,2.55
2022-10-23T08:56:55.609Z,19.25
2022-10-23T08:59:33.096Z,7.32
2022-10-23T09:02:06.145Z,4.25
2022-10-23T09:04:35.769Z,2.17
2022-10-23T09:07:17.240Z,4.80
2022-10-23T09:10:04.659Z,1.13
2022-10-23T09:12:33.566Z,1.98
2022-10-23T09:15:22.251Z,2.95
2022-10-23T09:17:57.206Z,3.05
2022-10-23T09:20:28.535Z,4.07
2022-10-23T09:23:02.123Z,6.13
2022-10-23T09:25:33.085Z,4.75
2022-10-23T09:28:05.553Z,3.45
2022-10-23T09:30:37.739Z,1.35
2022-10-23T09:33:16.365Z,2.78
2022-10-23T09:35:57.284Z,4.15
2022-10-23T09:38:33.734Z,3.88
2022-10-23T09:41:07.485Z,3.45
2022-10-23T09:43:36.325Z,4.18
2022-10-23T09:46:09.725Z,4.45
2022-10-23T09:48:42.413Z,3.10
2022-10-23T09:51:19.419Z,7.18
2022-10-23T09:53:53.598Z,3.72
2022-10-23T09:56:27.841Z,3.75
2022-10-23T09:58:58.753Z,2.92
2022-10-23T10:01:30.435Z,4.75
2022-10-23T10:04:15.490Z,2.75
2022-10-23T10:06:44.618Z,1.83
2022-10-23T10:09:16.995Z,4.13
2022-10-23T10:11:51.215Z,1.13
2022-10-23T10:14:43.635Z,4.22
2022-10-23T10:17:21.664Z,2.38
2022-10-23T10:20:06.860Z,1.23
2022-10-23T10:22:43.745Z,0.80
2022-10-23T10:25:22.726Z,2.45
2022-10-23T10:28:02.075Z,1.75
2022-10-23T10:30:40.823Z,1.85
2022-10-23T10:33:18.410Z,1.55
2022-10-23T10:35:53.462Z,0.82
2022-10-23T10:38:43.666Z,2.15
2022-10-23T10:41:26.399Z,0.77
2022-10-23T10:44:07.044Z,5.00
2022-10-23T10:46:45.176Z,1.15
2022-10-23T10:49:20.125Z,1.73
2022-10-23T10:52:21.780Z,7.28
2022-10-23T10:55:00.043Z,1.92
2022-10-23T10:57:33.728Z,4.57
2022-10-23T11:00:06.589Z,1.58
2022-10-23T11:02:44.754Z,1.67
2022-10-23T11:05:23.982Z,2.70
2022-10-23T11:07:58.077Z,0.70
2022-10-23T11:10:28.354Z,3.63
2022-10-23T11:12:58.737Z,2.15
2022-10-23T11:15:30.447Z,1.38
2022-10-23T11:18:02.055Z,0.22
2022-10-23T11:20:50.821Z,1.67
2022-10-23T11:23:50.958Z,1.15
2022-10-23T11:26:42.904Z,0.35
2022-10-23T11:29:30.349Z,1.45
2022-10-23T11:32:15.598Z,1.20
2022-10-23T11:35:16.792Z,1.13
2022-10-23T11:37:45.850Z,1.65
2022-10-23T11:40:23.402Z,2.08
2022-10-23T11:42:52.727Z,2.17
2022-10-23T11:45:32.473Z,1.42
2022-10-23T11:48:03.272Z,0.90
2022-10-23T11:50:34.617Z,1.65
2022-10-23T11:53:14.555Z,1.52
2022-10-23T11:56:02.289Z,0.47
2022-10-23T11:58:43.942Z,1.63
2022-10-23T12:01:30.300Z,1.35
2022-10-23T12:04:02.691Z,1.10
2022-10-23T12:06:39.466Z,0.65
2022-10-23T12:09:21.890Z,1.27
2022-10-23T12:12:02.414Z,2.08
2022-10-23T12:14:34.728Z,1.95
2022-10-23T12:17:27.354Z,2.38
2022-10-23T12:20:03.195Z,1.17
2022-10-23T12:22:43.425Z,7.20
2022-10-23T12:25:16.566Z,0.95
2022-10-23T12:27:54.951Z,1.27
2022-10-23T12:30:26.291Z,0.85
2022-10-23T12:33:24.585Z,0.40
2022-10-23T12:36:23.165Z,1.52
2022-10-23T12:38:52.059Z,0.90
2022-10-23T12:41:26.279Z,1.75
2022-10-23T12:43:58.151Z,1.55
2022-10-23T12:46:32.119Z,2.42
2022-10-23T12:49:04.585Z,1.52
2022-10-23T12:51:34.839Z,5.72
2022-10-23T12:54:04.703Z,1.30
2022-10-23T12:56:36.931Z,2.35
2022-10-23T12:59:12.966Z,1.85
2022-10-23T13:01:43.433Z,2.45
2022-10-23T13:04:24.801Z,3.20
2022-10-23T13:06:55.893Z,3.67
2022-10-23T13:09:28.707Z,1.63
2022-10-23T13:12:24.413Z,3.28
2022-10-23T13:14:58.780Z,1.52
2022-10-23T13:17:39.216Z,1.03
2022-10-23T13:20:27.563Z,0.60
2022-10-23T13:23:09.451Z,1.38
2022-10-23T13:25:40.558Z,0.88
2022-10-23T13:28:22.210Z,1.10
2022-10-23T13:31:07.149Z,1.65
2022-10-23T13:33:38.789Z,0.70
2022-10-23T13:36:24.174Z,1.17
2022-10-23T13:39:04.915Z,1.35
2022-10-23T13:41:39.371Z,0.50
2022-10-23T13:44:08.668Z,1.60
2022-10-23T13:46:37.528Z,1.77
2022-10-23T13:49:06.520Z,1.70
2022-10-23T13:51:42.780Z,1.60
2022-10-23T13:54:16.623Z,0.70
2022-10-23T13:56:45.530Z,0.30
2022-10-23T13:59:15.163Z,0.95
2022-10-23T14:01:45.864Z,0.75
2022-10-23T14:04:16.797Z,1.77
2022-10-23T14:06:47.147Z,1.00
2022-10-23T14:09:19.192Z,0.30
2022-10-23T14:11:48.006Z,0.68
2022-10-23T14:14:16.802Z,0.10
2022-10-23T14:16:45.656Z,0.93
2022-10-23T14:19:14.475Z,0.35
2022-10-23T14:21:43.278Z,0.50
2022-10-23T14:24:14.816Z,0.60
2022-10-23T14:26:44.023Z,0.40
2022-10-23T14:29:21.186Z,1.52
2022-10-23T14:31:53.039Z,0.68
2022-10-23T14:34:22.262Z,0.77
2022-10-23T14:37:03.759Z,0.52
2022-10-23T14:39:38.082Z,2.08
2022-10-23T14:42:07.137Z,0.47
2022-10-23T14:44:36.375Z,0.77
2022-10-23T14:47:05.363Z,1.27
2022-10-23T14:49:35.654Z,0.70
2022-10-23T14:52:04.678Z,1.45
2022-10-23T14:54:35.205Z,0.30
2022-10-23T14:57:05.690Z,0.40
2022-10-23T14:59:34.573Z,1.63
2022-10-23T15:02:23.452Z,20.60
2022-10-23T15:04:52.615Z,2.40
2022-10-23T15:07:21.417Z,2.95
2022-10-23T15:09:51.895Z,10.27
2022-10-23T15:12:22.154Z,9.65
2022-10-23T15:14:50.937Z,6.05
2022-10-23T15:17:19.724Z,3.00
2022-10-23T15:19:48.575Z,6.32
2022-10-23T15:22:17.402Z,4.68
2022-10-23T15:24:46.393Z,5.88
2022-10-23T15:27:15.332Z,19.38
2022-10-23T15:29:46.227Z,89.18
2022-10-23T15:32:15.034Z,111.68
2022-10-23T15:34:43.894Z,20.70
2022-10-23T15:37:12.885Z,20.45
2022-10-23T15:39:41.836Z,9.45
2022-10-23T15:42:11.907Z,11.02
2022-10-23T15:44:41.434Z,12.02
2022-10-23T15:47:11.957Z,30.70
2022-10-23T15:49:41.061Z,35.28
2022-10-23T15:52:11.385Z,24.20
2022-10-23T15:54:40.357Z,23.15
2022-10-23T15:57:09.143Z,30.50
2022-10-23T15:59:37.973Z,28.20
2022-10-23T16:02:07.019Z,29.48
2022-10-23T16:04:37.344Z,27.70
2022-10-23T16:07:07.262Z,31.85
2022-10-23T16:09:36.927Z,24.77
2022-10-23T16:12:06.302Z,31.92
2022-10-23T16:14:35.135Z,32.35
2022-10-23T16:17:04.058Z,40.90
2022-10-23T16:19:32.889Z,18.50
2022-10-23T16:22:03.785Z,21.75
2022-10-23T16:24:32.891Z,17.65
2022-10-23T16:27:02.003Z,20.73
2022-10-23T16:29:30.923Z,19.08
2022-10-23T16:32:00.367Z,15.63
2022-10-23T16:34:29.206Z,11.25
2022-10-23T16:36:58.258Z,9.50
2022-10-23T16:39:36.164Z,14.63
2022-10-23T16:42:24.050Z,11.40
2022-10-23T16:45:06.769Z,16.23
2022-10-23T16:47:36.245Z,10.88
2022-10-23T16:50:05.965Z,6.75
2022-10-23T16:52:34.794Z,7.95
2022-10-23T16:55:05.398Z,6.70
2022-10-23T16:57:35.654Z,38.17
2022-10-23T17:00:06.291Z,44.80
2022-10-23T17:02:35.292Z,31.30
2022-10-23T17:05:04.271Z,20.38
2022-10-23T17:07:33.991Z,9.93
2022-10-23T17:10:04.268Z,14.00
2022-10-23T17:12:33.177Z,15.30
2022-10-23T17:15:02.042Z,18.33
2022-10-23T17:17:31.826Z,29.33
2022-10-23T17:20:00.668Z,35.08
2022-10-23T17:22:29.980Z,45.15
2022-10-23T17:24:59.846Z,38.15
2022-10-23T17:27:30.020Z,35.97
2022-10-23T17:29:59.253Z,46.60
2022-10-23T17:32:28.211Z,41.78
2022-10-23T17:34:57.081Z,47.70
2022-10-23T17:37:25.885Z,24.80
2022-10-23T17:39:54.812Z,23.98
2022-10-23T17:42:23.694Z,19.65
2022-10-23T17:44:53.903Z,14.02
2022-10-23T17:47:22.800Z,17.08
2022-10-23T17:49:51.631Z,9.30
2022-10-23T17:52:20.821Z,12.35
2022-10-23T17:54:52.689Z,9.00
2022-10-23T17:59:56.718Z,11.07
2022-10-23T18:02:25.665Z,13.15
2022-10-23T18:04:54.646Z,10.60
2022-10-23T18:07:24.300Z,7.97
2022-10-23T18:09:53.225Z,13.23
2022-10-23T18:12:22.817Z,10.05
2022-10-23T18:14:51.638Z,7.57
2022-10-23T18:17:21.903Z,8.27
2022-10-23T18:19:51.704Z,13.00
2022-10-23T18:22:20.528Z,24.00
2022-10-23T18:24:49.419Z,25.50
2022-10-23T18:27:18.340Z,20.88
2022-10-23T18:29:47.358Z,22.45
2022-10-23T18:32:16.159Z,25.83
2022-10-23T18:34:46.378Z,15.60
2022-10-23T18:37:15.259Z,21.85
2022-10-23T18:39:44.118Z,20.77
2022-10-23T18:42:12.909Z,16.73
2022-10-23T18:44:46.905Z,19.42
2022-10-23T18:49:50.975Z,17.38
2022-10-23T18:52:19.774Z,13.07
2022-10-23T18:54:48.646Z,16.75
2022-10-23T18:57:17.411Z,19.17
2022-10-23T18:59:46.218Z,14.57
2022-10-23T19:02:15.230Z,20.33
2022-10-23T19:04:44.182Z,24.70
2022-10-23T19:07:14.334Z,30.05
2022-10-23T19:09:43.605Z,26.45
2022-10-23T19:14:42.698Z,22.40
2022-10-23T19:17:17.057Z,20.73
2022-10-23T19:19:51.296Z,22.25
2022-10-23T19:22:21.664Z,19.70
2022-10-23T19:24:55.290Z,20.98
2022-10-23T19:27:24.275Z,21.50
2022-10-23T19:29:54.863Z,23.08
2022-10-23T19:32:23.747Z,28.48
2022-10-23T19:34:52.877Z,30.20
2022-10-23T19:37:24.057Z,42.03
2022-10-23T19:39:52.934Z,36.65
2022-10-23T19:42:21.798Z,42.75
2022-10-23T19:44:50.639Z,35.90
2022-10-23T19:47:19.449Z,44.90
2022-10-23T19:49:50.758Z,32.50
2022-10-23T19:52:22.203Z,32.45
2022-10-23T19:54:52.597Z,54.45
2022-10-23T19:57:22.645Z,56.47
2022-10-23T19:59:52.942Z,60.50
2022-10-23T20:02:22.443Z,51.15
2022-10-23T20:04:51.413Z,56.22
2022-10-23T20:07:20.251Z,41.40
2022-10-23T20:09:49.262Z,41.75
2022-10-23T20:12:19.635Z,36.17
2022-10-23T20:14:48.443Z,51.08
2022-10-23T20:17:17.370Z,48.42
2022-10-23T20:19:48.168Z,33.35
2022-10-23T20:22:17.057Z,28.17
2022-10-23T20:24:45.920Z,27.75
2022-10-23T20:27:15.031Z,29.23
2022-10-23T20:29:45.685Z,33.13
2022-10-23T20:32:15.486Z,33.92
2022-10-23T20:34:44.596Z,22.70
2022-10-23T20:37:13.394Z,33.30
2022-10-23T20:39:42.994Z,46.80
2022-10-23T20:42:11.765Z,42.22
2022-10-23T20:44:40.983Z,41.03
2022-10-23T20:47:11.241Z,32.42
2022-10-23T20:49:40.082Z,25.02
2022-10-23T20:52:08.947Z,27.10
2022-10-23T20:54:38.262Z,23.08
2022-10-23T20:57:07.226Z,20.60
2022-10-23T20:59:36.052Z,31.27
2022-10-23T21:02:05.266Z,29.45
2022-10-23T21:04:35.706Z,20.75
2022-10-23T21:07:10.070Z,26.95
2022-10-23T21:09:40.277Z,20.45
2022-10-23T21:12:09.896Z,16.52
2022-10-23T21:14:39.067Z,25.27
2022-10-23T21:17:10.835Z,27.38
2022-10-23T21:19:41.405Z,24.10
2022-10-23T21:22:10.435Z,19.05
2022-10-23T21:24:39.277Z,19.55
2022-10-23T21:27:08.185Z,14.77
2022-10-23T21:29:37.082Z,23.58
2022-10-23T21:32:06.401Z,21.83
2022-10-23T21:34:35.207Z,20.15
2022-10-23T21:37:14.216Z,18.08
2022-10-23T21:39:44.385Z,19.77
2022-10-23T21:42:13.782Z,12.63
2022-10-23T21:44:42.776Z,23.02
2022-10-23T21:47:11.598Z,16.55
2022-10-23T21:49:40.545Z,14.38
2022-10-23T21:52:10.774Z,16.35
2022-10-23T21:54:39.644Z,17.83
2022-10-23T21:57:15.320Z,18.15
2022-10-23T21:59:44.237Z,36.03
2022-10-23T22:02:13.231Z,45.58
2022-10-23T22:04:42.215Z,53.42
2022-10-23T22:07:14.990Z,49.58
2022-10-23T22:09:44.606Z,44.55
2022-10-23T22:12:13.635Z,34.33
2022-10-23T22:14:42.627Z,29.88
2022-10-23T22:17:11.503Z,27.27
2022-10-23T22:19:40.333Z,28.02
2022-10-23T22:22:09.330Z,20.50
2022-10-23T22:24:39.546Z,24.10
2022-10-23T22:27:08.394Z,26.08
2022-10-23T22:29:37.220Z,29.00
2022-10-23T22:32:06.375Z,18.92
2022-10-23T22:34:51.813Z,16.77
2022-10-23T22:37:21.472Z,15.55
2022-10-23T22:39:53.440Z,13.85
2022-10-23T22:42:22.296Z,16.00
2022-10-23T22:44:51.165Z,9.75
2022-10-23T22:47:19.999Z,15.02
2022-10-23T22:49:48.874Z,18.45
2022-10-23T22:52:17.666Z,14.38
2022-10-23T22:54:46.566Z,14.82
2022-10-23T22:57:16.816Z,14.25
2022-10-23T22:59:45.694Z,14.25
2022-10-23T23:02:14.573Z,12.55
2022-10-23T23:04:43.429Z,13.13
2022-10-23T23:07:13.797Z,18.60
2022-10-23T23:09:44.142Z,19.75
2022-10-23T23:12:16.613Z,25.23
2022-10-23T23:14:45.493Z,19.42
2022-10-23T23:17:14.264Z,21.73
2022-10-23T23:19:43.118Z,17.42
2022-10-23T23:22:11.920Z,14.60
2022-10-23T23:24:40.956Z,18.73
2022-10-23T23:27:09.804Z,14.30
2022-10-23T23:29:40.221Z,20.85
2022-10-23T23:32:09.185Z,34.00
2022-10-23T23:34:38.042Z,30.13
2022-10-23T23:37:06.838Z,18.08
2022-10-23T23:39:35.684Z,16.42
2022-10-23T23:42:05.014Z,12.00
2022-10-23T23:44:38.886Z,14.43
2022-10-23T23:47:16.128Z,11.02
2022-10-23T23:49:45.012Z,32.63
2022-10-23T23:52:13.910Z,29.08
2022-10-23T23:54:42.785Z,21.17
2022-10-23T23:57:12.038Z,33.15
2022-10-23T23:59:41.716Z,15.55
